sensor_id;sensor_type;location;lat;lon;timestamp;pressure;altitude;pressure_sealevel;temperature;humidity
41945;BME280;63122;52.424;13.458;2023-07-22T00:03:03;100464.56;;;14.16;100.00
41945;BME280;63122;52.424;13.458;2023-07-22T00:06:45;100466.34;;;14.24;100.00
41945;BME280;63122;52.424;13.458;2023-07-22T00:26:26;100472.50;;;14.01;100.00
41945;BME280;63122;52.424;13.458;2023-07-22T00:28:46;100473.69;;;13.99;100.00
41945;BME280;63122;52.424;13.458;2023-07-22T00:31:40;100476.81;;;14.02;100.00
41945;BME280;63122;52.424;13.458;2023-07-22T00:34:49;100471.69;;;14.01;100.00
41945;BME280;63122;52.424;13.458;2023-07-22T00:41:13;100468.09;;;13.93;100.00
41945;BME280;63122;52.424;13.458;2023-07-22T00:45:18;100463.09;;;13.75;100.00
41945;BME280;63122;52.424;13.458;2023-07-22T00:51:05;100465.69;;;13.84;100.00
41945;BME280;63122;52.424;13.458;2023-07-22T00:54:52;100472.88;;;13.75;100.00
41945;BME280;63122;52.424;13.458;2023-07-22T01:04:10;100474.88;;;13.49;100.00
41945;BME280;63122;52.424;13.458;2023-07-22T01:10:51;100478.81;;;13.53;100.00
41945;BME280;63122;52.424;13.458;2023-07-22T01:14:18;100483.94;;;13.55;100.00
41945;BME280;63122;52.424;13.458;2023-07-22T01:17:21;100483.38;;;13.45;100.00
41945;BME280;63122;52.424;13.458;2023-07-22T01:23:42;100472.88;;;13.51;100.00
41945;BME280;63122;52.424;13.458;2023-07-22T01:28:26;100474.84;;;13.58;100.00
41945;BME280;63122;52.424;13.458;2023-07-22T01:31:15;100485.59;;;13.56;100.00
41945;BME280;63122;52.424;13.458;2023-07-22T01:40:33;100492.91;;;13.54;100.00
41945;BME280;63122;52.424;13.458;2023-07-22T01:42:38;100488.75;;;13.51;100.00
41945;BME280;63122;52.424;13.458;2023-07-22T01:44:53;100491.91;;;13.55;100.00
41945;BME280;63122;52.424;13.458;2023-07-22T01:46:58;100490.41;;;13.52;100.00
41945;BME280;63122;52.424;13.458;2023-07-22T01:49:01;100488.97;;;13.50;100.00
41945;BME280;63122;52.424;13.458;2023-07-22T01:51:04;100491.09;;;13.55;100.00
41945;BME280;63122;52.424;13.458;2023-07-22T01:53:01;100485.78;;;13.55;100.00
41945;BME280;63122;52.424;13.458;2023-07-22T01:54:54;100484.59;;;13.57;100.00
41945;BME280;63122;52.424;13.458;2023-07-22T01:56:52;100486.25;;;13.58;100.00
41945;BME280;63122;52.424;13.458;2023-07-22T01:58:47;100495.56;;;13.54;100.00
41945;BME280;63122;52.424;13.458;2023-07-22T02:00:42;100502.84;;;13.52;100.00
41945;BME280;63122;52.424;13.458;2023-07-22T02:02:37;100510.81;;;13.52;100.00
41945;BME280;63122;52.424;13.458;2023-07-22T02:04:30;100503.38;;;13.47;100.00
41945;BME280;63122;52.424;13.458;2023-07-22T02:06:26;100503.72;;;13.44;100.00
41945;BME280;63122;52.424;13.458;2023-07-22T02:08:22;100511.66;;;13.44;100.00
41945;BME280;63122;52.424;13.458;2023-07-22T02:10:17;100527.22;;;13.47;100.00
41945;BME280;63122;52.424;13.458;2023-07-22T02:12:15;100513.81;;;13.49;100.00
41945;BME280;63122;52.424;13.458;2023-07-22T02:14:10;100515.25;;;13.51;100.00
41945;BME280;63122;52.424;13.458;2023-07-22T02:16:05;100528.84;;;13.57;100.00
41945;BME280;63122;52.424;13.458;2023-07-22T02:17:58;100520.41;;;13.53;100.00
41945;BME280;63122;52.424;13.458;2023-07-22T02:19:54;100517.25;;;13.49;100.00
41945;BME280;63122;52.424;13.458;2023-07-22T02:21:49;100524.69;;;13.54;100.00
41945;BME280;63122;52.424;13.458;2023-07-22T02:23:45;100533.66;;;13.53;100.00
41945;BME280;63122;52.424;13.458;2023-07-22T02:25:40;100533.16;;;13.49;100.00
41945;BME280;63122;52.424;13.458;2023-07-22T02:27:39;100537.47;;;13.50;100.00
41945;BME280;63122;52.424;13.458;2023-07-22T02:29:35;100540.25;;;13.57;100.00
41945;BME280;63122;52.424;13.458;2023-07-22T02:31:28;100537.91;;;13.62;100.00
41945;BME280;63122;52.424;13.458;2023-07-22T02:33:24;100538.53;;;13.64;100.00
41945;BME280;63122;52.424;13.458;2023-07-22T02:35:19;100538.88;;;13.70;100.00
41945;BME280;63122;52.424;13.458;2023-07-22T02:37:14;100545.47;;;13.74;100.00
41945;BME280;63122;52.424;13.458;2023-07-22T02:39:09;100541.31;;;13.71;100.00
41945;BME280;63122;52.424;13.458;2023-07-22T02:41:05;100546.47;;;13.73;100.00
41945;BME280;63122;52.424;13.458;2023-07-22T02:43:03;100549.47;;;13.70;100.00
41945;BME280;63122;52.424;13.458;2023-07-22T02:44:59;100551.28;;;13.69;100.00
41945;BME280;63122;52.424;13.458;2023-07-22T02:46:51;100546.97;;;13.68;100.00
41945;BME280;63122;52.424;13.458;2023-07-22T02:48:47;100550.28;;;13.70;100.00
41945;BME280;63122;52.424;13.458;2023-07-22T02:50:43;100563.53;;;13.70;100.00
41945;BME280;63122;52.424;13.458;2023-07-22T02:52:38;100560.88;;;13.70;100.00
41945;BME280;63122;52.424;13.458;2023-07-22T02:54:30;100555.06;;;13.75;100.00
41945;BME280;63122;52.424;13.458;2023-07-22T02:56:26;100564.84;;;13.74;100.00
41945;BME280;63122;52.424;13.458;2023-07-22T02:58:24;100568.47;;;13.73;100.00
41945;BME280;63122;52.424;13.458;2023-07-22T03:00:18;100567.19;;;13.69;100.00
41945;BME280;63122;52.424;13.458;2023-07-22T03:02:18;100577.94;;;13.67;100.00
41945;BME280;63122;52.424;13.458;2023-07-22T03:04:14;100573.50;;;13.68;100.00
41945;BME280;63122;52.424;13.458;2023-07-22T03:06:10;100577.50;;;13.64;100.00
41945;BME280;63122;52.424;13.458;2023-07-22T03:08:10;100576.78;;;13.70;100.00
41945;BME280;63122;52.424;13.458;2023-07-22T03:10:07;100577.28;;;13.74;100.00
41945;BME280;63122;52.424;13.458;2023-07-22T03:12:08;100565.31;;;13.78;100.00
41945;BME280;63122;52.424;13.458;2023-07-22T03:14:08;100566.63;;;13.82;100.00
41945;BME280;63122;52.424;13.458;2023-07-22T03:16:05;100566.63;;;13.82;100.00
41945;BME280;63122;52.424;13.458;2023-07-22T03:18:01;100571.06;;;13.81;100.00
41945;BME280;63122;52.424;13.458;2023-07-22T03:19:58;100577.38;;;13.80;100.00
41945;BME280;63122;52.424;13.458;2023-07-22T03:21:52;100576.56;;;13.80;100.00
41945;BME280;63122;52.424;13.458;2023-07-22T03:23:48;100572.63;;;13.76;100.00
41945;BME280;63122;52.424;13.458;2023-07-22T03:25:49;100572.63;;;13.76;100.00
41945;BME280;63122;52.424;13.458;2023-07-22T03:27:47;100585.03;;;13.75;100.00
41945;BME280;63122;52.424;13.458;2023-07-22T03:29:51;100578.44;;;13.71;100.00
41945;BME280;63122;52.424;13.458;2023-07-22T03:31:50;100582.09;;;13.70;100.00
41945;BME280;63122;52.424;13.458;2023-07-22T03:34:01;100595.41;;;13.62;100.00
41945;BME280;63122;52.424;13.458;2023-07-22T03:36:00;100585.97;;;13.59;100.00
41945;BME280;63122;52.424;13.458;2023-07-22T03:38:00;100595.75;;;13.59;100.00
41945;BME280;63122;52.424;13.458;2023-07-22T03:39:59;100599.41;;;13.58;100.00
41945;BME280;63122;52.424;13.458;2023-07-22T03:41:56;100604.72;;;13.49;100.00
41945;BME280;63122;52.424;13.458;2023-07-22T03:43:52;100601.41;;;13.47;100.00
41945;BME280;63122;52.424;13.458;2023-07-22T03:45:50;100597.25;;;13.53;100.00
41945;BME280;63122;52.424;13.458;2023-07-22T03:47:47;100596.59;;;13.51;100.00
41945;BME280;63122;52.424;13.458;2023-07-22T03:49:39;100592.16;;;13.43;100.00
41945;BME280;63122;52.424;13.458;2023-07-22T03:51:34;100599.09;;;13.44;100.00
41945;BME280;63122;52.424;13.458;2023-07-22T03:53:30;100602.41;;;13.55;100.00
41945;BME280;63122;52.424;13.458;2023-07-22T03:55:25;100597.41;;;13.51;100.00
41945;BME280;63122;52.424;13.458;2023-07-22T03:57:25;100606.72;;;13.47;100.00
41945;BME280;63122;52.424;13.458;2023-07-22T03:59:18;100600.25;;;13.42;100.00
41945;BME280;63122;52.424;13.458;2023-07-22T04:01:15;100607.06;;;13.44;100.00
41945;BME280;63122;52.424;13.458;2023-07-22T04:03:11;100601.06;;;13.42;100.00
41945;BME280;63122;52.424;13.458;2023-07-22T04:05:07;100602.91;;;13.42;100.00
41945;BME280;63122;52.424;13.458;2023-07-22T04:07:02;100608.91;;;13.44;100.00
41945;BME280;63122;52.424;13.458;2023-07-22T04:09:00;100608.53;;;13.38;100.00
41945;BME280;63122;52.424;13.458;2023-07-22T04:10:56;100609.22;;;13.41;100.00
41945;BME280;63122;52.424;13.458;2023-07-22T04:12:52;100604.88;;;13.39;100.00
41945;BME280;63122;52.424;13.458;2023-07-22T04:14:47;100609.38;;;13.39;100.00
41945;BME280;63122;52.424;13.458;2023-07-22T04:16:42;100615.19;;;13.43;100.00
41945;BME280;63122;52.424;13.458;2023-07-22T04:18:38;100621.47;;;13.42;100.00
41945;BME280;63122;52.424;13.458;2023-07-22T04:20:33;100618.13;;;13.39;100.00
41945;BME280;63122;52.424;13.458;2023-07-22T04:24:24;100619.84;;;13.24;100.00
41945;BME280;63122;52.424;13.458;2023-07-22T04:26:18;100621.34;;;13.18;100.00
41945;BME280;63122;52.424;13.458;2023-07-22T04:28:13;100621.19;;;13.20;100.00
41945;BME280;63122;52.424;13.458;2023-07-22T04:30:08;100627.66;;;13.17;100.00
41945;BME280;63122;52.424;13.458;2023-07-22T04:32:07;100622.19;;;13.19;100.00
41945;BME280;63122;52.424;13.458;2023-07-22T04:34:00;100625.50;;;13.21;100.00
41945;BME280;63122;52.424;13.458;2023-07-22T04:35:57;100621.00;;;13.21;100.00
41945;BME280;63122;52.424;13.458;2023-07-22T04:37:50;100619.22;;;13.14;100.00
41945;BME280;63122;52.424;13.458;2023-07-22T04:39:48;100621.69;;;13.15;100.00
41945;BME280;63122;52.424;13.458;2023-07-22T04:41:43;100624.50;;;13.22;100.00
41945;BME280;63122;52.424;13.458;2023-07-22T04:43:38;100626.97;;;13.23;100.00
41945;BME280;63122;52.424;13.458;2023-07-22T04:45:34;100620.34;;;13.19;100.00
41945;BME280;63122;52.424;13.458;2023-07-22T04:47:35;100623.00;;;13.19;100.00
41945;BME280;63122;52.424;13.458;2023-07-22T04:49:30;100621.69;;;13.15;100.00
41945;BME280;63122;52.424;13.458;2023-07-22T04:51:25;100624.19;;;13.17;100.00
41945;BME280;63122;52.424;13.458;2023-07-22T04:53:21;100634.13;;;13.15;100.00
41945;BME280;63122;52.424;13.458;2023-07-22T04:55:16;100629.94;;;13.20;100.00
41945;BME280;63122;52.424;13.458;2023-07-22T04:57:11;100637.25;;;13.27;100.00
41945;BME280;63122;52.424;13.458;2023-07-22T04:59:09;100634.06;;;13.31;100.00
41945;BME280;63122;52.424;13.458;2023-07-22T05:01:09;100643.31;;;13.35;100.00
41945;BME280;63122;52.424;13.458;2023-07-22T05:03:07;100636.41;;;13.26;100.00
41945;BME280;63122;52.424;13.458;2023-07-22T05:04:59;100639.53;;;13.30;100.00
41945;BME280;63122;52.424;13.458;2023-07-22T05:06:55;100639.22;;;13.24;100.00
41945;BME280;63122;52.424;13.458;2023-07-22T05:08:50;100644.34;;;13.26;100.00
41945;BME280;63122;52.424;13.458;2023-07-22T05:10:43;100645.34;;;13.25;100.00
41945;BME280;63122;52.424;13.458;2023-07-22T05:12:38;100652.13;;;13.28;100.00
41945;BME280;63122;52.424;13.458;2023-07-22T05:14:30;100655.94;;;13.25;100.00
41945;BME280;63122;52.424;13.458;2023-07-22T05:16:26;100657.91;;;13.31;100.00
41945;BME280;63122;52.424;13.458;2023-07-22T05:18:24;100659.06;;;13.37;100.00
41945;BME280;63122;52.424;13.458;2023-07-22T05:20:20;100656.91;;;13.32;100.00
41945;BME280;63122;52.424;13.458;2023-07-22T05:22:15;100656.09;;;13.32;100.00
41945;BME280;63122;52.424;13.458;2023-07-22T05:24:10;100659.41;;;13.34;100.00
41945;BME280;63122;52.424;13.458;2023-07-22T05:26:06;100661.88;;;13.35;100.00
41945;BME280;63122;52.424;13.458;2023-07-22T05:28:02;100660.38;;;13.41;100.00
41945;BME280;63122;52.424;13.458;2023-07-22T05:29:57;100659.25;;;13.44;100.00
41945;BME280;63122;52.424;13.458;2023-07-22T05:31:53;100667.66;;;13.47;100.00
41945;BME280;63122;52.424;13.458;2023-07-22T05:33:51;100663.84;;;13.50;100.00
41945;BME280;63122;52.424;13.458;2023-07-22T05:35:44;100668.16;;;13.51;100.00
41945;BME280;63122;52.424;13.458;2023-07-22T05:37:40;100659.38;;;13.50;100.00
41945;BME280;63122;52.424;13.458;2023-07-22T05:39:36;100668.81;;;13.53;100.00
41945;BME280;63122;52.424;13.458;2023-07-22T05:41:32;100666.97;;;13.62;100.00
41945;BME280;63122;52.424;13.458;2023-07-22T05:43:30;100669.25;;;13.65;100.00
41945;BME280;63122;52.424;13.458;2023-07-22T05:45:25;100668.06;;;13.67;100.00
41945;BME280;63122;52.424;13.458;2023-07-22T05:47:21;100669.41;;;13.72;100.00
41945;BME280;63122;52.424;13.458;2023-07-22T05:49:19;100664.22;;;13.78;100.00
41945;BME280;63122;52.424;13.458;2023-07-22T05:51:14;100666.41;;;13.75;100.00
41945;BME280;63122;52.424;13.458;2023-07-22T05:53:10;100671.22;;;13.71;100.00
41945;BME280;63122;52.424;13.458;2023-07-22T05:55:05;100666.22;;;13.76;100.00
41945;BME280;63122;52.424;13.458;2023-07-22T05:57:01;100660.25;;;13.82;100.00
41945;BME280;63122;52.424;13.458;2023-07-22T05:58:54;100667.72;;;13.79;100.00
41945;BME280;63122;52.424;13.458;2023-07-22T06:00:49;100671.19;;;13.79;100.00
41945;BME280;63122;52.424;13.458;2023-07-22T06:02:45;100667.22;;;13.84;100.00
41945;BME280;63122;52.424;13.458;2023-07-22T06:04:43;100671.88;;;13.73;100.00
41945;BME280;63122;52.424;13.458;2023-07-22T06:06:36;100678.00;;;13.74;100.00
41945;BME280;63122;52.424;13.458;2023-07-22T06:08:31;100675.81;;;13.77;100.00
41945;BME280;63122;52.424;13.458;2023-07-22T06:10:26;100680.28;;;13.85;100.00
41945;BME280;63122;52.424;13.458;2023-07-22T06:12:22;100691.53;;;13.87;100.00
41945;BME280;63122;52.424;13.458;2023-07-22T06:14:17;100683.75;;;13.86;100.00
41945;BME280;63122;52.424;13.458;2023-07-22T06:16:13;100681.75;;;13.88;100.00
41945;BME280;63122;52.424;13.458;2023-07-22T06:18:05;100682.41;;;13.90;100.00
41945;BME280;63122;52.424;13.458;2023-07-22T06:20:05;100674.47;;;13.90;100.00
41945;BME280;63122;52.424;13.458;2023-07-22T06:22:00;100687.38;;;13.93;100.00
41945;BME280;63122;52.424;13.458;2023-07-22T06:23:56;100693.97;;;13.97;100.00
41945;BME280;63122;52.424;13.458;2023-07-22T06:25:51;100685.03;;;13.98;100.00
41945;BME280;63122;52.424;13.458;2023-07-22T06:27:46;100684.31;;;14.04;100.00
41945;BME280;63122;52.424;13.458;2023-07-22T06:29:39;100699.38;;;14.12;100.00
41945;BME280;63122;52.424;13.458;2023-07-22T06:31:34;100693.34;;;14.18;100.00
41945;BME280;63122;52.424;13.458;2023-07-22T06:33:30;100687.38;;;14.24;100.00
41945;BME280;63122;52.424;13.458;2023-07-22T06:35:28;100682.22;;;14.23;100.00
41945;BME280;63122;52.424;13.458;2023-07-22T06:37:23;100697.09;;;14.32;100.00
41945;BME280;63122;52.424;13.458;2023-07-22T06:39:19;100693.78;;;14.30;100.00
41945;BME280;63122;52.424;13.458;2023-07-22T06:41:14;100697.38;;;14.37;100.00
41945;BME280;63122;52.424;13.458;2023-07-22T06:43:10;100696.34;;;14.47;100.00
41945;BME280;63122;52.424;13.458;2023-07-22T06:45:06;100687.38;;;14.48;100.00
41945;BME280;63122;52.424;13.458;2023-07-22T06:46:59;100696.34;;;14.47;100.00
41945;BME280;63122;52.424;13.458;2023-07-22T06:48:54;100704.59;;;14.52;100.00
41945;BME280;63122;52.424;13.458;2023-07-22T06:50:52;100693.25;;;14.58;100.00
41945;BME280;63122;52.424;13.458;2023-07-22T06:52:47;100685.59;;;14.63;100.00
41945;BME280;63122;52.424;13.458;2023-07-22T06:54:43;100688.56;;;14.68;100.00
41945;BME280;63122;52.424;13.458;2023-07-22T06:56:38;100696.66;;;14.75;100.00
41945;BME280;63122;52.424;13.458;2023-07-22T06:58:30;100694.13;;;14.82;100.00
41945;BME280;63122;52.424;13.458;2023-07-22T07:00:26;100701.72;;;14.85;100.00
41945;BME280;63122;52.424;13.458;2023-07-22T07:02:18;100704.84;;;14.89;100.00
41945;BME280;63122;52.424;13.458;2023-07-22T07:04:13;100701.44;;;14.80;100.00
41945;BME280;63122;52.424;13.458;2023-07-22T07:06:11;100700.06;;;14.84;100.00
41945;BME280;63122;52.424;13.458;2023-07-22T07:08:07;100710.16;;;14.89;100.00
41945;BME280;63122;52.424;13.458;2023-07-22T07:10:02;100704.50;;;14.92;100.00
41945;BME280;63122;52.424;13.458;2023-07-22T07:11:58;100709.03;;;14.83;100.00
41945;BME280;63122;52.424;13.458;2023-07-22T07:13:53;100700.91;;;14.85;100.00
41945;BME280;63122;52.424;13.458;2023-07-22T07:15:48;100711.44;;;14.93;100.00
41945;BME280;63122;52.424;13.458;2023-07-22T07:17:41;100710.34;;;14.87;100.00
41945;BME280;63122;52.424;13.458;2023-07-22T07:19:36;100716.00;;;14.84;100.00
41945;BME280;63122;52.424;13.458;2023-07-22T07:21:34;100709.59;;;14.93;100.00
41945;BME280;63122;52.424;13.458;2023-07-22T07:23:26;100706.16;;;14.93;100.00
41945;BME280;63122;52.424;13.458;2023-07-22T07:25:21;100723.00;;;15.00;100.00
41945;BME280;63122;52.424;13.458;2023-07-22T07:27:17;100712.75;;;14.97;100.00
41945;BME280;63122;52.424;13.458;2023-07-22T07:29:12;100725.22;;;14.96;100.00
41945;BME280;63122;52.424;13.458;2023-07-22T07:31:28;100702.22;;;15.04;100.00
41945;BME280;63122;52.424;13.458;2023-07-22T07:33:24;100711.31;;;15.09;100.00
41945;BME280;63122;52.424;13.458;2023-07-22T07:35:17;100711.59;;;15.15;100.00
41945;BME280;63122;52.424;13.458;2023-07-22T07:37:15;100704.53;;;15.22;100.00
41945;BME280;63122;52.424;13.458;2023-07-22T07:39:10;100722.50;;;15.20;100.00
41945;BME280;63122;52.424;13.458;2023-07-22T07:41:06;100716.56;;;15.18;100.00
41945;BME280;63122;52.424;13.458;2023-07-22T07:43:03;100720.66;;;15.20;100.00
41945;BME280;63122;52.424;13.458;2023-07-22T07:44:56;100715.19;;;15.22;100.00
41945;BME280;63122;52.424;13.458;2023-07-22T07:46:52;100730.22;;;15.30;100.00
41945;BME280;63122;52.424;13.458;2023-07-22T07:48:49;100715.44;;;15.27;100.00
41945;BME280;63122;52.424;13.458;2023-07-22T07:50:45;100728.75;;;15.27;100.00
41945;BME280;63122;52.424;13.458;2023-07-22T07:52:42;100725.53;;;15.32;100.00
41945;BME280;63122;52.424;13.458;2023-07-22T07:54:35;100728.22;;;15.32;100.00
41945;BME280;63122;52.424;13.458;2023-07-22T07:56:30;100727.94;;;15.42;100.00
41945;BME280;63122;52.424;13.458;2023-07-22T07:58:25;100728.97;;;15.55;100.00
41945;BME280;63122;52.424;13.458;2023-07-22T08:00:19;100733.81;;;15.67;100.00
41945;BME280;63122;52.424;13.458;2023-07-22T08:02:15;100736.94;;;15.71;100.00
41945;BME280;63122;52.424;13.458;2023-07-22T08:04:10;100747.31;;;15.65;100.00
41945;BME280;63122;52.424;13.458;2023-07-22T08:06:05;100736.94;;;15.71;100.00
41945;BME280;63122;52.424;13.458;2023-07-22T08:08:04;100738.13;;;15.83;100.00
41945;BME280;63122;52.424;13.458;2023-07-22T08:09:59;100736.66;;;15.80;100.00
41945;BME280;63122;52.424;13.458;2023-07-22T08:11:56;100738.56;;;15.87;100.00
41945;BME280;63122;52.424;13.458;2023-07-22T08:13:51;100740.53;;;15.93;100.00
41945;BME280;63122;52.424;13.458;2023-07-22T08:15:47;100746.84;;;16.07;100.00
41945;BME280;63122;52.424;13.458;2023-07-22T08:17:39;100734.44;;;15.99;100.00
41945;BME280;63122;52.424;13.458;2023-07-22T08:19:35;100734.28;;;16.01;100.00
41945;BME280;63122;52.424;13.458;2023-07-22T08:21:30;100740.34;;;16.09;100.00
41945;BME280;63122;52.424;13.458;2023-07-22T08:23:28;100741.22;;;16.17;100.00
41945;BME280;63122;52.424;13.458;2023-07-22T08:25:21;100735.78;;;16.25;100.00
41945;BME280;63122;52.424;13.458;2023-07-22T08:27:17;100743.75;;;16.25;100.00
41945;BME280;63122;52.424;13.458;2023-07-22T08:29:12;100738.19;;;16.20;100.00
41945;BME280;63122;52.424;13.458;2023-07-22T08:31:07;100751.66;;;16.18;100.00
41945;BME280;63122;52.424;13.458;2023-07-22T08:33:02;100745.16;;;16.21;100.00
41945;BME280;63122;52.424;13.458;2023-07-22T08:34:59;100742.03;;;16.17;100.00
41945;BME280;63122;52.424;13.458;2023-07-22T08:36:55;100755.16;;;16.19;100.00
41945;BME280;63122;52.424;13.458;2023-07-22T08:38:50;100746.88;;;16.29;100.00
41945;BME280;63122;52.424;13.458;2023-07-22T08:40:48;100751.75;;;16.25;100.00
41945;BME280;63122;52.424;13.458;2023-07-22T08:42:45;100774.91;;;16.24;100.00
41945;BME280;63122;52.424;13.458;2023-07-22T08:44:41;100752.38;;;16.27;100.00
41945;BME280;63122;52.424;13.458;2023-07-22T08:46:39;100762.94;;;16.35;100.00
41945;BME280;63122;52.424;13.458;2023-07-22T08:48:36;100757.28;;;16.45;100.00
41945;BME280;63122;52.424;13.458;2023-07-22T08:50:42;100754.06;;;16.50;100.00
41945;BME280;63122;52.424;13.458;2023-07-22T08:52:39;100759.59;;;16.48;100.00
41945;BME280;63122;52.424;13.458;2023-07-22T08:54:37;100770.69;;;16.52;100.00
41945;BME280;63122;52.424;13.458;2023-07-22T08:56:33;100761.50;;;16.54;100.00
41945;BME280;63122;52.424;13.458;2023-07-22T08:58:26;100766.63;;;16.56;100.00
41945;BME280;63122;52.424;13.458;2023-07-22T09:00:22;100766.44;;;16.58;100.00
41945;BME280;63122;52.424;13.458;2023-07-22T09:02:15;100764.13;;;16.69;100.00
41945;BME280;63122;52.424;13.458;2023-07-22T09:04:12;100760.88;;;16.74;100.00
41945;BME280;63122;52.424;13.458;2023-07-22T09:06:07;100759.81;;;16.68;100.00
41945;BME280;63122;52.424;13.458;2023-07-22T09:08:02;100751.56;;;16.63;100.00
41945;BME280;63122;52.424;13.458;2023-07-22T09:10:01;100767.09;;;16.81;100.00
41945;BME280;63122;52.424;13.458;2023-07-22T09:11:54;100758.28;;;16.81;100.00
41945;BME280;63122;52.424;13.458;2023-07-22T09:13:51;100765.69;;;16.86;100.00
41945;BME280;63122;52.424;13.458;2023-07-22T09:15:47;100764.44;;;16.81;100.00
41945;BME280;63122;52.424;13.458;2023-07-22T09:17:44;100768.75;;;16.82;100.00
41945;BME280;63122;52.424;13.458;2023-07-22T09:19:39;100769.56;;;16.83;100.00
41945;BME280;63122;52.424;13.458;2023-07-22T09:21:35;100755.50;;;16.89;100.00
41945;BME280;63122;52.424;13.458;2023-07-22T09:23:34;100767.81;;;16.90;100.00
41945;BME280;63122;52.424;13.458;2023-07-22T09:25:30;100775.31;;;17.02;100.00
41945;BME280;63122;52.424;13.458;2023-07-22T09:27:33;100761.38;;;16.84;100.00
41945;BME280;63122;52.424;13.458;2023-07-22T09:29:35;100766.84;;;16.76;100.00
41945;BME280;63122;52.424;13.458;2023-07-22T09:31:31;100763.53;;;16.74;100.00
41945;BME280;63122;52.424;13.458;2023-07-22T09:33:26;100754.16;;;16.78;100.00
41945;BME280;63122;52.424;13.458;2023-07-22T09:35:21;100767.97;;;16.89;100.00
41945;BME280;63122;52.424;13.458;2023-07-22T09:37:17;100761.53;;;16.98;100.00
41945;BME280;63122;52.424;13.458;2023-07-22T09:39:14;100759.69;;;17.27;100.00
41945;BME280;63122;52.424;13.458;2023-07-22T09:41:12;100766.75;;;17.35;100.00
41945;BME280;63122;52.424;13.458;2023-07-22T09:43:10;100754.31;;;17.49;100.00
41945;BME280;63122;52.424;13.458;2023-07-22T09:45:04;100761.97;;;17.30;100.00
41945;BME280;63122;52.424;13.458;2023-07-22T09:47:05;100754.09;;;17.44;100.00
41945;BME280;63122;52.424;13.458;2023-07-22T09:49:03;100757.03;;;17.27;100.00
41945;BME280;63122;52.424;13.458;2023-07-22T09:50:57;100777.41;;;17.35;100.00
41945;BME280;63122;52.424;13.458;2023-07-22T09:52:54;100768.38;;;17.36;100.00
41945;BME280;63122;52.424;13.458;2023-07-22T09:54:50;100756.47;;;17.32;100.00
41945;BME280;63122;52.424;13.458;2023-07-22T09:56:46;100764.19;;;17.48;100.00
41945;BME280;63122;52.424;13.458;2023-07-22T09:58:42;100770.66;;;17.39;100.00
41945;BME280;63122;52.424;13.458;2023-07-22T10:00:39;100774.25;;;17.53;100.00
41945;BME280;63122;52.424;13.458;2023-07-22T10:02:37;100777.94;;;17.52;100.00
41945;BME280;63122;52.424;13.458;2023-07-22T10:04:36;100785.31;;;17.50;99.67
41945;BME280;63122;52.424;13.458;2023-07-22T10:06:33;100776.72;;;17.54;99.87
41945;BME280;63122;52.424;13.458;2023-07-22T10:08:30;100792.72;;;17.54;100.00
41945;BME280;63122;52.424;13.458;2023-07-22T10:10:31;100774.06;;;17.54;100.00
41945;BME280;63122;52.424;13.458;2023-07-22T10:12:29;100781.31;;;17.67;99.29
41945;BME280;63122;52.424;13.458;2023-07-22T10:14:22;100780.00;;;17.92;97.75
41945;BME280;63122;52.424;13.458;2023-07-22T10:16:18;100768.13;;;17.94;95.72
41945;BME280;63122;52.424;13.458;2023-07-22T10:18:13;100774.41;;;18.15;96.63
41945;BME280;63122;52.424;13.458;2023-07-22T10:20:11;100780.16;;;18.19;93.18
41945;BME280;63122;52.424;13.458;2023-07-22T10:22:08;100770.06;;;18.07;89.65
41945;BME280;63122;52.424;13.458;2023-07-22T10:24:03;100761.63;;;18.04;88.80
41945;BME280;63122;52.424;13.458;2023-07-22T10:25:59;100779.53;;;18.17;90.38
41945;BME280;63122;52.424;13.458;2023-07-22T10:27:58;100786.34;;;18.26;85.44
41945;BME280;63122;52.424;13.458;2023-07-22T10:29:54;100758.00;;;18.18;84.54
41945;BME280;63122;52.424;13.458;2023-07-22T10:31:49;100775.50;;;18.34;79.55
41945;BME280;63122;52.424;13.458;2023-07-22T10:33:47;100762.31;;;18.26;77.71
41945;BME280;63122;52.424;13.458;2023-07-22T10:36:02;100761.59;;;18.52;79.76
41945;BME280;63122;52.424;13.458;2023-07-22T10:37:55;100767.78;;;18.73;82.23
41945;BME280;63122;52.424;13.458;2023-07-22T10:39:50;100772.03;;;18.54;76.39
41945;BME280;63122;52.424;13.458;2023-07-22T10:41:46;100771.03;;;18.62;79.50
41945;BME280;63122;52.424;13.458;2023-07-22T10:43:53;100773.53;;;18.63;81.06
41945;BME280;63122;52.424;13.458;2023-07-22T10:45:50;100771.91;;;18.96;79.94
41945;BME280;63122;52.424;13.458;2023-07-22T10:48:00;100761.69;;;19.06;78.91
41945;BME280;63122;52.424;13.458;2023-07-22T10:50:05;100763.50;;;19.12;74.76
41945;BME280;63122;52.424;13.458;2023-07-22T10:52:03;100756.72;;;19.10;75.82
41945;BME280;63122;52.424;13.458;2023-07-22T10:53:58;100763.91;;;18.89;73.58
41945;BME280;63122;52.424;13.458;2023-07-22T10:56:10;100764.50;;;18.78;73.32
41945;BME280;63122;52.424;13.458;2023-07-22T10:58:06;100770.66;;;18.92;75.60
41945;BME280;63122;52.424;13.458;2023-07-22T11:00:01;100761.88;;;19.11;79.19
41945;BME280;63122;52.424;13.458;2023-07-22T11:02:00;100782.22;;;19.26;73.90